sensor_id;sensor_type;location;lat;lon;timestamp;temperature;humidity
10133;DHT22;5106;50.926;7.080;2023-01-19T00:01:23;0.00;83.60
10133;DHT22;5106;50.926;7.080;2023-01-19T00:03:48;0.00;83.60
10133;DHT22;5106;50.926;7.080;2023-01-19T00:06:14;0.00;83.70
10133;DHT22;5106;50.926;7.080;2023-01-19T00:08:40;0.00;83.80
10133;DHT22;5106;50.926;7.080;2023-01-19T00:11:09;0.00;83.80
10133;DHT22;5106;50.926;7.080;2023-01-19T00:13:35;-0.10;83.70
10133;DHT22;5106;50.926;7.080;2023-01-19T00:16:01;-0.10;83.70
10133;DHT22;5106;50.926;7.080;2023-01-19T00:18:27;-0.10;83.80
10133;DHT22;5106;50.926;7.080;2023-01-19T00:20:52;-0.10;83.80
10133;DHT22;5106;50.926;7.080;2023-01-19T00:23:18;-0.10;83.90
10133;DHT22;5106;50.926;7.080;2023-01-19T00:25:44;-0.10;83.80
10133;DHT22;5106;50.926;7.080;2023-01-19T00:28:14;-0.10;83.90
10133;DHT22;5106;50.926;7.080;2023-01-19T00:30:41;-0.20;83.90
10133;DHT22;5106;50.926;7.080;2023-01-19T00:33:07;-0.20;84.10
10133;DHT22;5106;50.926;7.080;2023-01-19T00:35:34;-0.20;84.10
10133;DHT22;5106;50.926;7.080;2023-01-19T00:38:00;-0.20;84.20
10133;DHT22;5106;50.926;7.080;2023-01-19T00:40:26;-0.20;84.20
10133;DHT22;5106;50.926;7.080;2023-01-19T00:42:52;-0.20;84.30
10133;DHT22;5106;50.926;7.080;2023-01-19T00:45:20;-0.20;84.30
10133;DHT22;5106;50.926;7.080;2023-01-19T00:47:47;-0.20;84.30
10133;DHT22;5106;50.926;7.080;2023-01-19T00:50:15;-0.20;84.30
10133;DHT22;5106;50.926;7.080;2023-01-19T00:52:44;-0.20;84.40
10133;DHT22;5106;50.926;7.080;2023-01-19T00:55:12;-0.20;84.40
10133;DHT22;5106;50.926;7.080;2023-01-19T00:57:38;-0.20;84.40
10133;DHT22;5106;50.926;7.080;2023-01-19T01:00:06;-0.20;84.40
10133;DHT22;5106;50.926;7.080;2023-01-19T01:02:33;-0.20;84.50
10133;DHT22;5106;50.926;7.080;2023-01-19T01:04:59;-0.20;84.50
10133;DHT22;5106;50.926;7.080;2023-01-19T01:07:28;-0.20;84.50
10133;DHT22;5106;50.926;7.080;2023-01-19T01:09:53;-0.20;84.50
10133;DHT22;5106;50.926;7.080;2023-01-19T01:12:21;-0.20;84.50
10133;DHT22;5106;50.926;7.080;2023-01-19T01:14:47;-0.20;84.50
10133;DHT22;5106;50.926;7.080;2023-01-19T01:17:12;-0.20;84.60
10133;DHT22;5106;50.926;7.080;2023-01-19T01:19:39;-0.20;84.60
10133;DHT22;5106;50.926;7.080;2023-01-19T01:22:06;-0.20;84.60
10133;DHT22;5106;50.926;7.080;2023-01-19T01:24:32;-0.20;84.70
10133;DHT22;5106;50.926;7.080;2023-01-19T01:26:57;-0.10;84.80
10133;DHT22;5106;50.926;7.080;2023-01-19T01:29:23;-0.10;84.80
10133;DHT22;5106;50.926;7.080;2023-01-19T01:31:48;-0.10;84.90
10133;DHT22;5106;50.926;7.080;2023-01-19T01:34:14;-0.10;84.80
10133;DHT22;5106;50.926;7.080;2023-01-19T01:36:41;-0.10;84.80
10133;DHT22;5106;50.926;7.080;2023-01-19T01:39:07;-0.10;84.90
10133;DHT22;5106;50.926;7.080;2023-01-19T01:41:32;-0.10;84.90
10133;DHT22;5106;50.926;7.080;2023-01-19T01:43:59;-0.10;84.90
10133;DHT22;5106;50.926;7.080;2023-01-19T01:46:28;-0.20;84.90
10133;DHT22;5106;50.926;7.080;2023-01-19T01:49:04;-0.20;84.90
10133;DHT22;5106;50.926;7.080;2023-01-19T01:51:52;-0.20;84.90
10133;DHT22;5106;50.926;7.080;2023-01-19T01:54:30;-0.20;84.90
10133;DHT22;5106;50.926;7.080;2023-01-19T01:57:00;-0.20;84.90
10133;DHT22;5106;50.926;7.080;2023-01-19T01:59:32;-0.20;85.00
10133;DHT22;5106;50.926;7.080;2023-01-19T02:02:20;-0.20;85.00
10133;DHT22;5106;50.926;7.080;2023-01-19T02:05:10;-0.10;85.10
10133;DHT22;5106;50.926;7.080;2023-01-19T02:08:01;-0.10;85.10
10133;DHT22;5106;50.926;7.080;2023-01-19T02:10:46;0.00;85.10
10133;DHT22;5106;50.926;7.080;2023-01-19T02:13:33;0.00;85.10
10133;DHT22;5106;50.926;7.080;2023-01-19T02:16:02;0.10;85.10
10133;DHT22;5106;50.926;7.080;2023-01-19T02:18:31;0.10;85.10
10133;DHT22;5106;50.926;7.080;2023-01-19T02:20:59;0.20;85.00
10133;DHT22;5106;50.926;7.080;2023-01-19T02:26:09;0.20;84.90
10133;DHT22;5106;50.926;7.080;2023-01-19T02:28:41;0.20;84.80
10133;DHT22;5106;50.926;7.080;2023-01-19T02:31:07;0.20;84.80
10133;DHT22;5106;50.926;7.080;2023-01-19T02:33:33;0.20;84.70
10133;DHT22;5106;50.926;7.080;2023-01-19T02:35:59;0.20;84.70
10133;DHT22;5106;50.926;7.080;2023-01-19T02:38:26;0.10;84.70
10133;DHT22;5106;50.926;7.080;2023-01-19T02:40:54;0.10;84.70
10133;DHT22;5106;50.926;7.080;2023-01-19T02:43:22;0.10;84.80
10133;DHT22;5106;50.926;7.080;2023-01-19T02:45:49;0.20;84.80
10133;DHT22;5106;50.926;7.080;2023-01-19T02:48:16;0.10;84.80
10133;DHT22;5106;50.926;7.080;2023-01-19T02:50:44;0.10;84.80
10133;DHT22;5106;50.926;7.080;2023-01-19T02:53:34;0.20;84.80
10133;DHT22;5106;50.926;7.080;2023-01-19T02:56:33;0.10;84.80
10133;DHT22;5106;50.926;7.080;2023-01-19T03:15:48;0.20;84.80
10133;DHT22;5106;50.926;7.080;2023-01-19T03:18:18;0.20;84.80
10133;DHT22;5106;50.926;7.080;2023-01-19T03:20:44;0.20;84.80
10133;DHT22;5106;50.926;7.080;2023-01-19T03:23:13;0.30;84.80
10133;DHT22;5106;50.926;7.080;2023-01-19T03:25:42;0.30;84.80
10133;DHT22;5106;50.926;7.080;2023-01-19T03:28:09;0.30;84.80
10133;DHT22;5106;50.926;7.080;2023-01-19T03:30:38;0.30;84.80
10133;DHT22;5106;50.926;7.080;2023-01-19T03:33:11;0.30;84.70
10133;DHT22;5106;50.926;7.080;2023-01-19T03:35:42;0.30;84.70
10133;DHT22;5106;50.926;7.080;2023-01-19T03:38:14;0.40;84.70
10133;DHT22;5106;50.926;7.080;2023-01-19T03:40:40;0.30;84.70
10133;DHT22;5106;50.926;7.080;2023-01-19T03:43:07;0.40;84.70
10133;DHT22;5106;50.926;7.080;2023-01-19T03:45:36;0.40;84.70
10133;DHT22;5106;50.926;7.080;2023-01-19T03:48:03;0.30;84.60
10133;DHT22;5106;50.926;7.080;2023-01-19T03:50:30;0.40;84.70
10133;DHT22;5106;50.926;7.080;2023-01-19T03:53:06;0.40;84.70
10133;DHT22;5106;50.926;7.080;2023-01-19T03:55:32;0.40;84.60
10133;DHT22;5106;50.926;7.080;2023-01-19T03:57:58;0.40;84.60
10133;DHT22;5106;50.926;7.080;2023-01-19T04:00:24;0.40;84.70
10133;DHT22;5106;50.926;7.080;2023-01-19T04:02:50;0.40;84.70
10133;DHT22;5106;50.926;7.080;2023-01-19T04:05:16;0.50;84.70
10133;DHT22;5106;50.926;7.080;2023-01-19T04:07:41;0.50;84.70
10133;DHT22;5106;50.926;7.080;2023-01-19T04:10:07;0.60;84.60
10133;DHT22;5106;50.926;7.080;2023-01-19T04:12:37;0.70;84.60
10133;DHT22;5106;50.926;7.080;2023-01-19T04:15:05;0.70;84.50
10133;DHT22;5106;50.926;7.080;2023-01-19T04:17:31;0.70;84.40
10133;DHT22;5106;50.926;7.080;2023-01-19T04:19:56;0.80;84.30
10133;DHT22;5106;50.926;7.080;2023-01-19T04:22:22;0.80;84.30
10133;DHT22;5106;50.926;7.080;2023-01-19T04:24:47;0.80;84.30
10133;DHT22;5106;50.926;7.080;2023-01-19T04:27:14;0.90;84.20
10133;DHT22;5106;50.926;7.080;2023-01-19T04:29:40;0.90;84.20
10133;DHT22;5106;50.926;7.080;2023-01-19T04:32:07;0.90;84.10
10133;DHT22;5106;50.926;7.080;2023-01-19T04:34:32;0.90;84.00
10133;DHT22;5106;50.926;7.080;2023-01-19T04:36:58;1.00;84.10
10133;DHT22;5106;50.926;7.080;2023-01-19T04:39:24;1.00;84.00
10133;DHT22;5106;50.926;7.080;2023-01-19T04:41:49;1.00;83.90
10133;DHT22;5106;50.926;7.080;2023-01-19T04:44:16;1.10;83.80
10133;DHT22;5106;50.926;7.080;2023-01-19T04:46:42;1.10;83.70
10133;DHT22;5106;50.926;7.080;2023-01-19T04:49:09;1.10;83.70
10133;DHT22;5106;50.926;7.080;2023-01-19T04:51:35;1.20;83.60
10133;DHT22;5106;50.926;7.080;2023-01-19T04:54:01;1.20;83.60
10133;DHT22;5106;50.926;7.080;2023-01-19T04:56:27;1.20;83.50
10133;DHT22;5106;50.926;7.080;2023-01-19T04:58:53;1.20;83.50
10133;DHT22;5106;50.926;7.080;2023-01-19T05:01:19;1.20;83.50
10133;DHT22;5106;50.926;7.080;2023-01-19T05:03:44;1.20;83.40
10133;DHT22;5106;50.926;7.080;2023-01-19T05:06:10;1.30;83.20
10133;DHT22;5106;50.926;7.080;2023-01-19T05:08:36;1.30;83.20
10133;DHT22;5106;50.926;7.080;2023-01-19T05:11:01;1.30;83.20
10133;DHT22;5106;50.926;7.080;2023-01-19T05:13:27;1.30;83.40
10133;DHT22;5106;50.926;7.080;2023-01-19T05:15:53;1.30;83.50
10133;DHT22;5106;50.926;7.080;2023-01-19T05:18:18;1.30;83.50
10133;DHT22;5106;50.926;7.080;2023-01-19T05:20:44;1.30;83.60
10133;DHT22;5106;50.926;7.080;2023-01-19T05:23:09;1.20;83.70
10133;DHT22;5106;50.926;7.080;2023-01-19T05:25:35;1.20;83.80
10133;DHT22;5106;50.926;7.080;2023-01-19T05:28:01;1.20;84.00
10133;DHT22;5106;50.926;7.080;2023-01-19T05:30:27;1.20;84.10
10133;DHT22;5106;50.926;7.080;2023-01-19T05:32:53;1.20;84.10
10133;DHT22;5106;50.926;7.080;2023-01-19T05:35:18;1.20;84.30
10133;DHT22;5106;50.926;7.080;2023-01-19T05:37:44;1.20;84.40
10133;DHT22;5106;50.926;7.080;2023-01-19T05:40:10;1.20;84.50
10133;DHT22;5106;50.926;7.080;2023-01-19T05:42:36;1.10;84.60
10133;DHT22;5106;50.926;7.080;2023-01-19T05:45:02;1.20;84.60
10133;DHT22;5106;50.926;7.080;2023-01-19T05:47:28;1.20;84.70
10133;DHT22;5106;50.926;7.080;2023-01-19T05:49:54;1.20;84.70
10133;DHT22;5106;50.926;7.080;2023-01-19T05:52:20;1.20;84.80
10133;DHT22;5106;50.926;7.080;2023-01-19T05:54:46;1.20;84.80
10133;DHT22;5106;50.926;7.080;2023-01-19T05:57:12;1.20;84.80
10133;DHT22;5106;50.926;7.080;2023-01-19T05:59:38;1.30;85.10
10133;DHT22;5106;50.926;7.080;2023-01-19T06:02:05;1.30;85.10
10133;DHT22;5106;50.926;7.080;2023-01-19T06:04:30;1.30;85.20
10133;DHT22;5106;50.926;7.080;2023-01-19T06:06:56;1.20;85.20
10133;DHT22;5106;50.926;7.080;2023-01-19T06:09:22;1.20;85.40
10133;DHT22;5106;50.926;7.080;2023-01-19T06:11:47;1.20;85.60
10133;DHT22;5106;50.926;7.080;2023-01-19T06:14:13;1.20;85.70
10133;DHT22;5106;50.926;7.080;2023-01-19T06:16:39;1.10;85.70
10133;DHT22;5106;50.926;7.080;2023-01-19T06:19:05;1.10;85.80
10133;DHT22;5106;50.926;7.080;2023-01-19T06:21:32;1.00;85.90
10133;DHT22;5106;50.926;7.080;2023-01-19T06:23:58;1.00;86.00
10133;DHT22;5106;50.926;7.080;2023-01-19T06:26:24;1.00;86.10
10133;DHT22;5106;50.926;7.080;2023-01-19T06:28:50;1.00;86.20
10133;DHT22;5106;50.926;7.080;2023-01-19T06:31:16;0.90;86.40
10133;DHT22;5106;50.926;7.080;2023-01-19T06:33:42;0.90;86.50
10133;DHT22;5106;50.926;7.080;2023-01-19T06:36:08;0.90;86.50
10133;DHT22;5106;50.926;7.080;2023-01-19T06:38:34;0.80;86.60
10133;DHT22;5106;50.926;7.080;2023-01-19T06:40:59;0.80;86.70
10133;DHT22;5106;50.926;7.080;2023-01-19T06:43:28;0.80;86.80
10133;DHT22;5106;50.926;7.080;2023-01-19T06:45:54;0.80;86.90
10133;DHT22;5106;50.926;7.080;2023-01-19T06:48:20;0.80;86.90
10133;DHT22;5106;50.926;7.080;2023-01-19T06:50:47;0.70;87.00
10133;DHT22;5106;50.926;7.080;2023-01-19T06:53:14;0.80;87.10
10133;DHT22;5106;50.926;7.080;2023-01-19T06:55:41;0.80;87.20
10133;DHT22;5106;50.926;7.080;2023-01-19T06:58:08;0.80;87.20
10133;DHT22;5106;50.926;7.080;2023-01-19T07:00:34;0.80;87.30
10133;DHT22;5106;50.926;7.080;2023-01-19T07:03:00;0.80;87.40
10133;DHT22;5106;50.926;7.080;2023-01-19T07:05:26;0.70;87.40
10133;DHT22;5106;50.926;7.080;2023-01-19T07:07:53;0.70;87.40
10133;DHT22;5106;50.926;7.080;2023-01-19T07:10:19;0.70;87.40
10133;DHT22;5106;50.926;7.080;2023-01-19T07:12:45;0.70;87.50
10133;DHT22;5106;50.926;7.080;2023-01-19T07:15:15;0.70;87.50
10133;DHT22;5106;50.926;7.080;2023-01-19T07:17:41;0.70;87.50
10133;DHT22;5106;50.926;7.080;2023-01-19T07:20:09;0.70;87.70
10133;DHT22;5106;50.926;7.080;2023-01-19T07:22:37;0.60;87.70
10133;DHT22;5106;50.926;7.080;2023-01-19T07:25:03;0.60;87.70
10133;DHT22;5106;50.926;7.080;2023-01-19T07:27:29;0.60;87.90
10133;DHT22;5106;50.926;7.080;2023-01-19T07:29:55;0.60;88.00
10133;DHT22;5106;50.926;7.080;2023-01-19T07:32:21;0.60;88.10
10133;DHT22;5106;50.926;7.080;2023-01-19T07:34:46;0.60;88.00
10133;DHT22;5106;50.926;7.080;2023-01-19T07:37:12;0.60;88.00
10133;DHT22;5106;50.926;7.080;2023-01-19T07:39:38;0.60;88.10
10133;DHT22;5106;50.926;7.080;2023-01-19T07:42:03;0.60;88.20
10133;DHT22;5106;50.926;7.080;2023-01-19T07:44:29;0.60;88.20
10133;DHT22;5106;50.926;7.080;2023-01-19T07:46:55;0.60;88.20
10133;DHT22;5106;50.926;7.080;2023-01-19T07:49:20;0.60;88.30
10133;DHT22;5106;50.926;7.080;2023-01-19T07:51:46;0.60;88.40
10133;DHT22;5106;50.926;7.080;2023-01-19T07:54:11;0.60;88.50
10133;DHT22;5106;50.926;7.080;2023-01-19T07:56:37;0.60;88.50
10133;DHT22;5106;50.926;7.080;2023-01-19T07:59:03;0.60;88.60
10133;DHT22;5106;50.926;7.080;2023-01-19T08:01:28;0.60;88.60
10133;DHT22;5106;50.926;7.080;2023-01-19T08:03:54;0.60;88.60
10133;DHT22;5106;50.926;7.080;2023-01-19T08:06:26;0.60;88.70
10133;DHT22;5106;50.926;7.080;2023-01-19T08:08:54;0.50;88.60
10133;DHT22;5106;50.926;7.080;2023-01-19T08:11:19;0.50;88.70
10133;DHT22;5106;50.926;7.080;2023-01-19T08:13:45;0.50;88.70
10133;DHT22;5106;50.926;7.080;2023-01-19T08:16:11;0.50;88.80
10133;DHT22;5106;50.926;7.080;2023-01-19T08:18:36;0.50;88.90
10133;DHT22;5106;50.926;7.080;2023-01-19T08:21:02;0.50;89.00
10133;DHT22;5106;50.926;7.080;2023-01-19T08:23:29;0.50;89.10
10133;DHT22;5106;50.926;7.080;2023-01-19T08:25:54;0.60;89.10
10133;DHT22;5106;50.926;7.080;2023-01-19T08:28:20;0.60;89.10
10133;DHT22;5106;50.926;7.080;2023-01-19T08:30:47;0.60;89.20
10133;DHT22;5106;50.926;7.080;2023-01-19T08:33:19;0.60;89.30
10133;DHT22;5106;50.926;7.080;2023-01-19T08:35:47;0.60;89.30
10133;DHT22;5106;50.926;7.080;2023-01-19T08:38:14;0.70;89.30
10133;DHT22;5106;50.926;7.080;2023-01-19T08:40:40;0.70;89.40
10133;DHT22;5106;50.926;7.080;2023-01-19T08:43:16;0.70;89.40
10133;DHT22;5106;50.926;7.080;2023-01-19T08:45:45;0.80;89.40
10133;DHT22;5106;50.926;7.080;2023-01-19T08:48:15;0.80;89.60
10133;DHT22;5106;50.926;7.080;2023-01-19T08:50:45;0.80;89.50
10133;DHT22;5106;50.926;7.080;2023-01-19T08:53:11;0.80;89.50
10133;DHT22;5106;50.926;7.080;2023-01-19T08:55:37;0.80;89.60
10133;DHT22;5106;50.926;7.080;2023-01-19T08:58:04;0.90;89.60
10133;DHT22;5106;50.926;7.080;2023-01-19T09:00:31;0.90;89.60
10133;DHT22;5106;50.926;7.080;2023-01-19T09:02:58;0.90;89.60
10133;DHT22;5106;50.926;7.080;2023-01-19T09:05:27;0.90;89.60
10133;DHT22;5106;50.926;7.080;2023-01-19T09:07:53;0.90;89.60
10133;DHT22;5106;50.926;7.080;2023-01-19T09:10:19;0.90;89.60
10133;DHT22;5106;50.926;7.080;2023-01-19T09:12:44;0.90;89.60
10133;DHT22;5106;50.926;7.080;2023-01-19T09:15:11;0.90;89.60
10133;DHT22;5106;50.926;7.080;2023-01-19T09:17:38;1.00;89.70
10133;DHT22;5106;50.926;7.080;2023-01-19T09:20:05;1.00;89.70
10133;DHT22;5106;50.926;7.080;2023-01-19T09:22:31;1.10;89.80
10133;DHT22;5106;50.926;7.080;2023-01-19T09:24:57;1.20;89.70
10133;DHT22;5106;50.926;7.080;2023-01-19T09:27:23;1.20;89.60
10133;DHT22;5106;50.926;7.080;2023-01-19T09:29:49;1.20;89.50
10133;DHT22;5106;50.926;7.080;2023-01-19T09:32:19;1.20;89.40
10133;DHT22;5106;50.926;7.080;2023-01-19T09:34:45;1.30;89.40
10133;DHT22;5106;50.926;7.080;2023-01-19T09:37:10;1.30;89.40
10133;DHT22;5106;50.926;7.080;2023-01-19T09:39:36;1.30;89.50
10133;DHT22;5106;50.926;7.080;2023-01-19T09:42:29;1.30;89.50
10133;DHT22;5106;50.926;7.080;2023-01-19T09:44:57;1.40;89.50
10133;DHT22;5106;50.926;7.080;2023-01-19T09:47:28;1.40;89.50
10133;DHT22;5106;50.926;7.080;2023-01-19T09:50:02;1.40;89.50
10133;DHT22;5106;50.926;7.080;2023-01-19T09:52:32;1.50;89.40
10133;DHT22;5106;50.926;7.080;2023-01-19T09:54:59;1.50;89.30
10133;DHT22;5106;50.926;7.080;2023-01-19T09:57:25;1.50;89.20
10133;DHT22;5106;50.926;7.080;2023-01-19T09:59:52;1.50;89.20
10133;DHT22;5106;50.926;7.080;2023-01-19T10:02:37;1.60;89.20
10133;DHT22;5106;50.926;7.080;2023-01-19T10:10:26;1.70;88.70
10133;DHT22;5106;50.926;7.080;2023-01-19T10:15:47;1.80;88.40
10133;DHT22;5106;50.926;7.080;2023-01-19T10:20:53;1.80;88.10
10133;DHT22;5106;50.926;7.080;2023-01-19T10:23:51;1.80;88.20
10133;DHT22;5106;50.926;7.080;2023-01-19T10:26:24;1.80;88.00
10133;DHT22;5106;50.926;7.080;2023-01-19T10:29:01;1.80;87.90
10133;DHT22;5106;50.926;7.080;2023-01-19T10:31:27;1.80;87.80
10133;DHT22;5106;50.926;7.080;2023-01-19T10:33:53;1.80;87.70
10133;DHT22;5106;50.926;7.080;2023-01-19T10:36:36;1.80;87.70
10133;DHT22;5106;50.926;7.080;2023-01-19T10:39:06;1.80;87.70
10133;DHT22;5106;50.926;7.080;2023-01-19T10:44:01;1.80;87.80
10133;DHT22;5106;50.926;7.080;2023-01-19T10:48:53;1.70;87.80
10133;DHT22;5106;50.926;7.080;2023-01-19T10:51:19;1.70;87.80
10133;DHT22;5106;50.926;7.080;2023-01-19T10:54:00;1.70;87.50
10133;DHT22;5106;50.926;7.080;2023-01-19T10:56:30;1.70;87.70
10133;DHT22;5106;50.926;7.080;2023-01-19T10:58:58;1.70;87.50
10133;DHT22;5106;50.926;7.080;2023-01-19T11:01:25;1.70;87.50
10133;DHT22;5106;50.926;7.080;2023-01-19T11:03:52;1.70;87.80
10133;DHT22;5106;50.926;7.080;2023-01-19T11:06:29;1.80;87.90
10133;DHT22;5106;50.926;7.080;2023-01-19T11:09:19;1.80;87.80
10133;DHT22;5106;50.926;7.080;2023-01-19T11:11:48;1.90;87.80
10133;DHT22;5106;50.926;7.080;2023-01-19T11:14:23;2.00;88.00
10133;DHT22;5106;50.926;7.080;2023-01-19T11:16:52;2.00;88.00
10133;DHT22;5106;50.926;7.080;2023-01-19T11:19:23;2.10;87.90
10133;DHT22;5106;50.926;7.080;2023-01-19T11:21:50;2.20;87.90
10133;DHT22;5106;50.926;7.080;2023-01-19T11:24:16;2.30;88.00
10133;DHT22;5106;50.926;7.080;2023-01-19T11:26:48;2.30;87.60
10133;DHT22;5106;50.926;7.080;2023-01-19T11:29:20;2.30;87.50
10133;DHT22;5106;50.926;7.080;2023-01-19T11:31:47;2.40;87.30
10133;DHT22;5106;50.926;7.080;2023-01-19T11:34:33;2.40;87.10
10133;DHT22;5106;50.926;7.080;2023-01-19T11:37:02;2.40;87.00
10133;DHT22;5106;50.926;7.080;2023-01-19T11:39:44;2.40;86.90
10133;DHT22;5106;50.926;7.080;2023-01-19T11:42:11;2.50;86.80
10133;DHT22;5106;50.926;7.080;2023-01-19T11:45:00;2.50;86.80
10133;DHT22;5106;50.926;7.080;2023-01-19T11:47:32;2.60;86.90
10133;DHT22;5106;50.926;7.080;2023-01-19T11:50:32;2.60;86.80
10133;DHT22;5106;50.926;7.080;2023-01-19T11:53:27;2.70;86.70
10133;DHT22;5106;50.926;7.080;2023-01-19T11:55:58;2.70;86.40
10133;DHT22;5106;50.926;7.080;2023-01-19T11:58:26;2.70;86.40
10133;DHT22;5106;50.926;7.080;2023-01-19T12:05:54;2.90;86.40
10133;DHT22;5106;50.926;7.080;2023-01-19T12:08:24;2.90;86.20
10133;DHT22;5106;50.926;7.080;2023-01-19T12:10:53;3.00;86.30
10133;DHT22;5106;50.926;7.080;2023-01-19T12:13:23;3.00;86.30
10133;DHT22;5106;50.926;7.080;2023-01-19T12:18:38;3.10;85.90
10133;DHT22;5106;50.926;7.080;2023-01-19T12:21:05;3.20;85.90
10133;DHT22;5106;50.926;7.080;2023-01-19T12:23:52;3.30;85.80
10133;DHT22;5106;50.926;7.080;2023-01-19T12:29:14;3.50;85.30
10133;DHT22;5106;50.926;7.080;2023-01-19T12:31:41;3.60;85.10
10133;DHT22;5106;50.926;7.080;2023-01-19T12:36:50;3.90;85.20
10133;DHT22;5106;50.926;7.080;2023-01-19T12:39:19;3.90;84.50
10133;DHT22;5106;50.926;7.080;2023-01-19T12:41:45;4.00;84.40
10133;DHT22;5106;50.926;7.080;2023-01-19T12:44:19;4.10;84.30
10133;DHT22;5106;50.926;7.080;2023-01-19T12:46:55;4.20;84.20
10133;DHT22;5106;50.926;7.080;2023-01-19T12:49:43;4.30;84.00
10133;DHT22;5106;50.926;7.080;2023-01-19T12:54:57;4.30;83.80
10133;DHT22;5106;50.926;7.080;2023-01-19T12:59:57;4.20;83.50
10133;DHT22;5106;50.926;7.080;2023-01-19T13:05:21;4.00;83.50
10133;DHT22;5106;50.926;7.080;2023-01-19T13:13:31;3.80;83.40
10133;DHT22;5106;50.926;7.080;2023-01-19T13:18:59;3.90;83.70
10133;DHT22;5106;50.926;7.080;2023-01-19T13:21:28;3.90;83.70
10133;DHT22;5106;50.926;7.080;2023-01-19T13:23:56;3.90;83.80
10133;DHT22;5106;50.926;7.080;2023-01-19T13:26:31;3.80;83.20
10133;DHT22;5106;50.926;7.080;2023-01-19T13:29:44;3.80;83.20
10133;DHT22;5106;50.926;7.080;2023-01-19T13:31:51;3.80;83.20
10133;DHT22;5106;50.926;7.080;2023-01-19T13:34:28;3.80;83.20
10133;DHT22;5106;50.926;7.080;2023-01-19T13:36:55;3.90;83.30
10133;DHT22;5106;50.926;7.080;2023-01-19T13:39:27;3.80;83.20
10133;DHT22;5106;50.926;7.080;2023-01-19T13:41:56;3.60;83.40
10133;DHT22;5106;50.926;7.080;2023-01-19T13:44:27;3.50;83.80
10133;DHT22;5106;50.926;7.080;2023-01-19T13:46:55;3.40;84.10
10133;DHT22;5106;50.926;7.080;2023-01-19T13:49:35;3.30;84.30
10133;DHT22;5106;50.926;7.080;2023-01-19T13:52:12;3.30;84.60
10133;DHT22;5106;50.926;7.080;2023-01-19T13:57:30;3.30;84.90
10133;DHT22;5106;50.926;7.080;2023-01-19T14:02:36;3.50;84.50
10133;DHT22;5106;50.926;7.080;2023-01-19T14:05:28;3.40;84.40
10133;DHT22;5106;50.926;7.080;2023-01-19T14:08:05;3.50;84.50
10133;DHT22;5106;50.926;7.080;2023-01-19T14:13:25;3.40;84.10
10133;DHT22;5106;50.926;7.080;2023-01-19T14:15:54;3.50;83.80
10133;DHT22;5106;50.926;7.080;2023-01-19T14:18:27;3.50;83.60
10133;DHT22;5106;50.926;7.080;2023-01-19T14:21:08;3.50;83.40
10133;DHT22;5106;50.926;7.080;2023-01-19T14:23:45;3.60;83.40
10133;DHT22;5106;50.926;7.080;2023-01-19T14:29:22;3.70;83.40
10133;DHT22;5106;50.926;7.080;2023-01-19T14:32:04;3.70;83.40
10133;DHT22;5106;50.926;7.080;2023-01-19T14:37:24;3.70;83.30
10133;DHT22;5106;50.926;7.080;2023-01-19T14:44:52;3.60;83.50
10133;DHT22;5106;50.926;7.080;2023-01-19T14:47:34;3.50;83.50
10133;DHT22;5106;50.926;7.080;2023-01-19T14:50:33;3.50;83.40
10133;DHT22;5106;50.926;7.080;2023-01-19T14:53:03;3.50;83.60
10133;DHT22;5106;50.926;7.080;2023-01-19T14:55:48;3.50;83.70
10133;DHT22;5106;50.926;7.080;2023-01-19T14:58:16;3.40;83.40
10133;DHT22;5106;50.926;7.080;2023-01-19T15:00:44;3.40;83.60
10133;DHT22;5106;50.926;7.080;2023-01-19T15:03:10;3.40;83.60
10133;DHT22;5106;50.926;7.080;2023-01-19T15:05:43;3.40;83.80
10133;DHT22;5106;50.926;7.080;2023-01-19T15:08:16;3.30;83.70
10133;DHT22;5106;50.926;7.080;2023-01-19T15:10:43;3.30;83.60
10133;DHT22;5106;50.926;7.080;2023-01-19T15:13:17;3.30;83.70
10133;DHT22;5106;50.926;7.080;2023-01-19T15:15:43;3.30;83.80
10133;DHT22;5106;50.926;7.080;2023-01-19T15:18:13;3.30;83.50
10133;DHT22;5106;50.926;7.080;2023-01-19T15:20:39;3.30;83.40
10133;DHT22;5106;50.926;7.080;2023-01-19T15:23:05;3.30;83.40
10133;DHT22;5106;50.926;7.080;2023-01-19T15:25:31;3.30;83.40
10133;DHT22;5106;50.926;7.080;2023-01-19T15:27:57;3.30;83.30
10133;DHT22;5106;50.926;7.080;2023-01-19T15:30:25;3.30;83.60
10133;DHT22;5106;50.926;7.080;2023-01-19T15:32:55;3.30;83.20
10133;DHT22;5106;50.926;7.080;2023-01-19T15:35:22;3.30;83.10
10133;DHT22;5106;50.926;7.080;2023-01-19T15:37:48;3.30;82.90
10133;DHT22;5106;50.926;7.080;2023-01-19T15:40:16;3.30;82.90
10133;DHT22;5106;50.926;7.080;2023-01-19T15:42:42;3.20;82.70
10133;DHT22;5106;50.926;7.080;2023-01-19T15:47:45;3.10;82.70
10133;DHT22;5106;50.926;7.080;2023-01-19T15:50:11;3.10;82.60
10133;DHT22;5106;50.926;7.080;2023-01-19T15:52:36;3.10;82.70
10133;DHT22;5106;50.926;7.080;2023-01-19T15:55:02;3.10;82.60
10133;DHT22;5106;50.926;7.080;2023-01-19T15:57:28;3.10;82.80
10133;DHT22;5106;50.926;7.080;2023-01-19T15:59:53;3.10;82.70
10133;DHT22;5106;50.926;7.080;2023-01-19T16:02:19;3.10;82.40
10133;DHT22;5106;50.926;7.080;2023-01-19T16:04:47;3.10;82.40
10133;DHT22;5106;50.926;7.080;2023-01-19T16:07:13;3.10;82.20
10133;DHT22;5106;50.926;7.080;2023-01-19T16:09:39;3.10;82.20
10133;DHT22;5106;50.926;7.080;2023-01-19T16:12:05;3.10;82.00
10133;DHT22;5106;50.926;7.080;2023-01-19T16:14:30;3.10;81.90
10133;DHT22;5106;50.926;7.080;2023-01-19T16:16:56;3.10;82.00
10133;DHT22;5106;50.926;7.080;2023-01-19T16:19:24;3.10;81.90
10133;DHT22;5106;50.926;7.080;2023-01-19T16:21:50;3.10;81.70
10133;DHT22;5106;50.926;7.080;2023-01-19T16:24:15;3.10;81.80
10133;DHT22;5106;50.926;7.080;2023-01-19T16:26:57;3.10;81.50
10133;DHT22;5106;50.926;7.080;2023-01-19T16:29:23;3.10;81.50
10133;DHT22;5106;50.926;7.080;2023-01-19T16:31:48;3.10;81.90
10133;DHT22;5106;50.926;7.080;2023-01-19T16:34:14;3.10;81.90
10133;DHT22;5106;50.926;7.080;2023-01-19T16:36:40;3.10;81.90
10133;DHT22;5106;50.926;7.080;2023-01-19T16:39:11;3.10;81.80
10133;DHT22;5106;50.926;7.080;2023-01-19T16:41:38;3.10;81.70
10133;DHT22;5106;50.926;7.080;2023-01-19T16:44:04;3.10;81.40
10133;DHT22;5106;50.926;7.080;2023-01-19T16:46:32;3.10;81.40
10133;DHT22;5106;50.926;7.080;2023-01-19T16:49:01;3.10;81.50
10133;DHT22;5106;50.926;7.080;2023-01-19T16:51:27;3.10;81.50
10133;DHT22;5106;50.926;7.080;2023-01-19T16:53:53;3.10;81.80
10133;DHT22;5106;50.926;7.080;2023-01-19T16:56:19;3.10;81.40
10133;DHT22;5106;50.926;7.080;2023-01-19T16:58:45;3.00;81.60
10133;DHT22;5106;50.926;7.080;2023-01-19T17:01:16;3.00;81.70
10133;DHT22;5106;50.926;7.080;2023-01-19T17:03:42;3.00;81.70
10133;DHT22;5106;50.926;7.080;2023-01-19T17:06:11;3.00;81.70
10133;DHT22;5106;50.926;7.080;2023-01-19T17:08:37;3.00;81.70
10133;DHT22;5106;50.926;7.080;2023-01-19T17:11:14;2.90;82.00
10133;DHT22;5106;50.926;7.080;2023-01-19T17:13:55;2.90;81.80
10133;DHT22;5106;50.926;7.080;2023-01-19T17:16:25;2.90;82.10
10133;DHT22;5106;50.926;7.080;2023-01-19T17:18:51;2.90;81.90
10133;DHT22;5106;50.926;7.080;2023-01-19T17:21:16;2.90;81.90
10133;DHT22;5106;50.926;7.080;2023-01-19T17:23:48;2.90;81.90
10133;DHT22;5106;50.926;7.080;2023-01-19T17:26:14;2.90;81.80
10133;DHT22;5106;50.926;7.080;2023-01-19T17:28:40;2.90;81.40
10133;DHT22;5106;50.926;7.080;2023-01-19T17:31:07;2.90;81.50
10133;DHT22;5106;50.926;7.080;2023-01-19T17:33:33;2.90;81.60
10133;DHT22;5106;50.926;7.080;2023-01-19T17:36:07;2.90;81.70
10133;DHT22;5106;50.926;7.080;2023-01-19T17:38:34;2.90;81.90